sensor_id;sensor_type;location;lat;lon;timestamp;P1;durP1;ratioP1;P2;durP2;ratioP2
66129;SDS011;52930;51.464;11.764;2022-09-09T00:03:57;7.43;;;1.73;;
66129;SDS011;52930;51.464;11.764;2022-09-09T00:06:42;6.05;;;1.92;;
66129;SDS011;52930;51.464;11.764;2022-09-09T00:09:12;5.13;;;1.57;;
66129;SDS011;52930;51.464;11.764;2022-09-09T00:14:20;9.23;;;1.85;;
66129;SDS011;52930;51.464;11.764;2022-09-09T00:16:58;5.63;;;1.63;;
66129;SDS011;52930;51.464;11.764;2022-09-09T00:19:36;4.93;;;1.83;;
66129;SDS011;52930;51.464;11.764;2022-09-09T00:22:12;4.33;;;1.57;;
66129;SDS011;52930;51.464;11.764;2022-09-09T00:24:44;9.13;;;1.58;;
66129;SDS011;52930;51.464;11.764;2022-09-09T00:27:34;4.32;;;1.88;;
66129;SDS011;52930;51.464;11.764;2022-09-09T00:32:41;6.53;;;1.58;;
66129;SDS011;52930;51.464;11.764;2022-09-09T00:37:35;5.63;;;1.90;;
66129;SDS011;52930;51.464;11.764;2022-09-09T00:40:02;8.03;;;2.00;;
66129;SDS011;52930;51.464;11.764;2022-09-09T00:42:42;5.00;;;1.77;;
66129;SDS011;52930;51.464;11.764;2022-09-09T00:47:56;7.22;;;1.52;;
66129;SDS011;52930;51.464;11.764;2022-09-09T00:50:43;8.57;;;1.90;;
66129;SDS011;52930;51.464;11.764;2022-09-09T00:55:49;5.65;;;1.70;;
66129;SDS011;52930;51.464;11.764;2022-09-09T00:58:17;4.85;;;1.48;;
66129;SDS011;52930;51.464;11.764;2022-09-09T01:00:44;7.47;;;1.60;;
66129;SDS011;52930;51.464;11.764;2022-09-09T01:11:22;5.45;;;1.60;;
66129;SDS011;52930;51.464;11.764;2022-09-09T01:13:55;5.85;;;1.80;;
66129;SDS011;52930;51.464;11.764;2022-09-09T01:16:25;4.32;;;1.63;;
66129;SDS011;52930;51.464;11.764;2022-09-09T01:18:51;4.80;;;1.77;;
66129;SDS011;52930;51.464;11.764;2022-09-09T01:21:39;4.75;;;1.45;;
66129;SDS011;52930;51.464;11.764;2022-09-09T01:24:26;7.28;;;1.90;;
66129;SDS011;52930;51.464;11.764;2022-09-09T01:26:58;4.97;;;2.20;;
66129;SDS011;52930;51.464;11.764;2022-09-09T01:29:26;5.35;;;1.80;;
66129;SDS011;52930;51.464;11.764;2022-09-09T01:31:53;8.32;;;2.47;;
66129;SDS011;52930;51.464;11.764;2022-09-09T01:34:23;5.72;;;1.52;;
66129;SDS011;52930;51.464;11.764;2022-09-09T01:37:11;5.53;;;1.88;;
66129;SDS011;52930;51.464;11.764;2022-09-09T01:39:37;5.83;;;1.90;;
66129;SDS011;52930;51.464;11.764;2022-09-09T01:42:05;4.65;;;1.65;;
66129;SDS011;52930;51.464;11.764;2022-09-09T01:44:31;6.72;;;1.80;;
66129;SDS011;52930;51.464;11.764;2022-09-09T01:46:58;4.60;;;1.63;;
66129;SDS011;52930;51.464;11.764;2022-09-09T01:49:23;5.63;;;1.40;;
66129;SDS011;52930;51.464;11.764;2022-09-09T01:51:50;5.03;;;1.93;;
66129;SDS011;52930;51.464;11.764;2022-09-09T01:54:18;6.55;;;1.60;;
66129;SDS011;52930;51.464;11.764;2022-09-09T01:56:59;5.88;;;1.58;;
66129;SDS011;52930;51.464;11.764;2022-09-09T01:59:44;7.32;;;1.55;;
66129;SDS011;52930;51.464;11.764;2022-09-09T02:02:20;5.32;;;1.50;;
66129;SDS011;52930;51.464;11.764;2022-09-09T02:04:53;5.17;;;1.60;;
66129;SDS011;52930;51.464;11.764;2022-09-09T02:10:09;5.80;;;2.10;;
66129;SDS011;52930;51.464;11.764;2022-09-09T02:12:39;8.55;;;1.45;;
66129;SDS011;52930;51.464;11.764;2022-09-09T02:15:11;5.35;;;1.90;;
66129;SDS011;52930;51.464;11.764;2022-09-09T02:17:46;6.67;;;2.20;;
66129;SDS011;52930;51.464;11.764;2022-09-09T02:20:15;5.93;;;1.75;;
66129;SDS011;52930;51.464;11.764;2022-09-09T02:22:42;9.85;;;2.38;;
66129;SDS011;52930;51.464;11.764;2022-09-09T02:25:10;5.68;;;1.70;;
66129;SDS011;52930;51.464;11.764;2022-09-09T02:27:37;8.65;;;1.70;;
66129;SDS011;52930;51.464;11.764;2022-09-09T02:30:03;6.90;;;1.90;;
66129;SDS011;52930;51.464;11.764;2022-09-09T02:32:29;5.97;;;2.10;;
66129;SDS011;52930;51.464;11.764;2022-09-09T02:34:57;4.73;;;1.97;;
66129;SDS011;52930;51.464;11.764;2022-09-09T02:37:27;6.40;;;1.92;;
66129;SDS011;52930;51.464;11.764;2022-09-09T02:39:58;5.95;;;2.28;;
66129;SDS011;52930;51.464;11.764;2022-09-09T02:42:23;4.40;;;1.80;;
66129;SDS011;52930;51.464;11.764;2022-09-09T02:44:49;7.40;;;1.97;;
66129;SDS011;52930;51.464;11.764;2022-09-09T02:52:42;5.60;;;2.00;;
66129;SDS011;52930;51.464;11.764;2022-09-09T02:55:18;5.13;;;1.90;;
66129;SDS011;52930;51.464;11.764;2022-09-09T02:57:56;5.47;;;1.98;;
66129;SDS011;52930;51.464;11.764;2022-09-09T03:00:24;5.18;;;1.60;;
66129;SDS011;52930;51.464;11.764;2022-09-09T03:02:52;7.35;;;1.80;;
66129;SDS011;52930;51.464;11.764;2022-09-09T03:05:19;5.57;;;1.60;;
66129;SDS011;52930;51.464;11.764;2022-09-09T03:07:45;5.55;;;1.75;;
66129;SDS011;52930;51.464;11.764;2022-09-09T03:10:11;6.67;;;1.80;;
66129;SDS011;52930;51.464;11.764;2022-09-09T03:12:36;5.07;;;1.73;;
66129;SDS011;52930;51.464;11.764;2022-09-09T03:15:02;5.30;;;1.70;;
66129;SDS011;52930;51.464;11.764;2022-09-09T03:17:27;5.50;;;2.10;;
66129;SDS011;52930;51.464;11.764;2022-09-09T03:19:53;6.95;;;1.90;;
66129;SDS011;52930;51.464;11.764;2022-09-09T03:22:20;6.28;;;2.05;;
66129;SDS011;52930;51.464;11.764;2022-09-09T03:24:46;6.57;;;2.15;;
66129;SDS011;52930;51.464;11.764;2022-09-09T03:27:12;7.05;;;1.83;;
66129;SDS011;52930;51.464;11.764;2022-09-09T03:29:39;8.07;;;2.10;;
66129;SDS011;52930;51.464;11.764;2022-09-09T03:32:05;6.13;;;2.00;;
66129;SDS011;52930;51.464;11.764;2022-09-09T03:34:31;7.13;;;2.38;;
66129;SDS011;52930;51.464;11.764;2022-09-09T03:36:56;4.63;;;1.67;;
66129;SDS011;52930;51.464;11.764;2022-09-09T03:39:21;5.03;;;1.90;;
66129;SDS011;52930;51.464;11.764;2022-09-09T03:41:47;5.53;;;1.73;;
66129;SDS011;52930;51.464;11.764;2022-09-09T03:44:13;6.07;;;2.20;;
66129;SDS011;52930;51.464;11.764;2022-09-09T03:46:39;8.07;;;2.05;;
66129;SDS011;52930;51.464;11.764;2022-09-09T03:49:04;9.47;;;2.00;;
66129;SDS011;52930;51.464;11.764;2022-09-09T03:51:29;6.45;;;2.28;;
66129;SDS011;52930;51.464;11.764;2022-09-09T03:53:55;6.78;;;2.25;;
66129;SDS011;52930;51.464;11.764;2022-09-09T03:56:21;6.43;;;2.28;;
66129;SDS011;52930;51.464;11.764;2022-09-09T03:58:47;4.88;;;2.35;;
66129;SDS011;52930;51.464;11.764;2022-09-09T04:01:12;6.27;;;2.60;;
66129;SDS011;52930;51.464;11.764;2022-09-09T04:03:39;7.57;;;2.40;;
66129;SDS011;52930;51.464;11.764;2022-09-09T04:06:05;6.40;;;2.20;;
66129;SDS011;52930;51.464;11.764;2022-09-09T04:08:32;6.40;;;2.10;;
66129;SDS011;52930;51.464;11.764;2022-09-09T04:10:58;8.05;;;2.20;;
66129;SDS011;52930;51.464;11.764;2022-09-09T04:13:27;4.93;;;2.28;;
66129;SDS011;52930;51.464;11.764;2022-09-09T04:15:56;6.53;;;2.43;;
66129;SDS011;52930;51.464;11.764;2022-09-09T04:18:23;4.70;;;1.90;;
66129;SDS011;52930;51.464;11.764;2022-09-09T04:20:49;8.27;;;2.10;;
66129;SDS011;52930;51.464;11.764;2022-09-09T04:23:15;5.68;;;1.85;;
66129;SDS011;52930;51.464;11.764;2022-09-09T04:25:45;8.48;;;2.40;;
66129;SDS011;52930;51.464;11.764;2022-09-09T04:28:18;6.43;;;1.83;;
66129;SDS011;52930;51.464;11.764;2022-09-09T04:30:44;6.72;;;1.98;;
66129;SDS011;52930;51.464;11.764;2022-09-09T04:33:10;9.83;;;2.33;;
66129;SDS011;52930;51.464;11.764;2022-09-09T04:35:36;6.63;;;2.25;;
66129;SDS011;52930;51.464;11.764;2022-09-09T04:38:04;5.78;;;2.20;;
66129;SDS011;52930;51.464;11.764;2022-09-09T04:40:32;7.30;;;2.13;;
66129;SDS011;52930;51.464;11.764;2022-09-09T04:42:58;6.70;;;2.10;;
66129;SDS011;52930;51.464;11.764;2022-09-09T04:45:24;8.85;;;2.17;;
66129;SDS011;52930;51.464;11.764;2022-09-09T04:47:49;6.83;;;2.03;;
66129;SDS011;52930;51.464;11.764;2022-09-09T04:50:14;6.73;;;2.10;;
66129;SDS011;52930;51.464;11.764;2022-09-09T04:52:40;5.25;;;1.77;;
66129;SDS011;52930;51.464;11.764;2022-09-09T04:55:06;6.67;;;1.87;;
66129;SDS011;52930;51.464;11.764;2022-09-09T04:57:32;6.45;;;1.70;;
66129;SDS011;52930;51.464;11.764;2022-09-09T04:59:58;7.00;;;1.70;;
66129;SDS011;52930;51.464;11.764;2022-09-09T05:02:25;5.65;;;1.50;;
66129;SDS011;52930;51.464;11.764;2022-09-09T05:04:51;5.68;;;1.55;;
66129;SDS011;52930;51.464;11.764;2022-09-09T05:07:16;4.90;;;1.60;;
66129;SDS011;52930;51.464;11.764;2022-09-09T05:09:41;6.60;;;1.73;;
66129;SDS011;52930;51.464;11.764;2022-09-09T05:12:07;5.90;;;1.20;;
66129;SDS011;52930;51.464;11.764;2022-09-09T05:14:33;5.73;;;1.93;;
66129;SDS011;52930;51.464;11.764;2022-09-09T05:17:00;4.82;;;1.65;;
66129;SDS011;52930;51.464;11.764;2022-09-09T05:19:25;5.93;;;1.50;;
66129;SDS011;52930;51.464;11.764;2022-09-09T05:21:50;4.63;;;1.10;;
66129;SDS011;52930;51.464;11.764;2022-09-09T05:24:16;4.53;;;1.50;;
66129;SDS011;52930;51.464;11.764;2022-09-09T05:26:42;5.77;;;1.50;;
66129;SDS011;52930;51.464;11.764;2022-09-09T05:29:08;5.05;;;1.55;;
66129;SDS011;52930;51.464;11.764;2022-09-09T05:31:33;5.17;;;1.50;;
66129;SDS011;52930;51.464;11.764;2022-09-09T05:33:59;5.18;;;1.48;;
66129;SDS011;52930;51.464;11.764;2022-09-09T05:36:24;3.90;;;1.30;;
66129;SDS011;52930;51.464;11.764;2022-09-09T05:38:50;3.93;;;1.23;;
66129;SDS011;52930;51.464;11.764;2022-09-09T05:41:16;7.53;;;1.50;;
66129;SDS011;52930;51.464;11.764;2022-09-09T05:43:42;4.78;;;1.58;;
66129;SDS011;52930;51.464;11.764;2022-09-09T05:46:13;4.75;;;1.10;;
66129;SDS011;52930;51.464;11.764;2022-09-09T05:48:43;6.47;;;1.40;;
66129;SDS011;52930;51.464;11.764;2022-09-09T05:51:13;4.85;;;1.50;;
66129;SDS011;52930;51.464;11.764;2022-09-09T05:53:42;6.40;;;1.70;;
66129;SDS011;52930;51.464;11.764;2022-09-09T05:56:09;5.50;;;1.50;;
66129;SDS011;52930;51.464;11.764;2022-09-09T05:58:45;6.30;;;1.58;;
66129;SDS011;52930;51.464;11.764;2022-09-09T06:01:18;5.88;;;1.40;;
66129;SDS011;52930;51.464;11.764;2022-09-09T06:03:44;5.22;;;1.50;;
66129;SDS011;52930;51.464;11.764;2022-09-09T06:06:12;4.65;;;1.50;;
66129;SDS011;52930;51.464;11.764;2022-09-09T06:08:46;4.53;;;1.67;;
66129;SDS011;52930;51.464;11.764;2022-09-09T06:13:38;5.88;;;1.85;;
66129;SDS011;52930;51.464;11.764;2022-09-09T06:16:08;4.97;;;1.35;;
66129;SDS011;52930;51.464;11.764;2022-09-09T06:18:36;5.20;;;1.50;;
66129;SDS011;52930;51.464;11.764;2022-09-09T06:21:03;4.90;;;1.65;;
66129;SDS011;52930;51.464;11.764;2022-09-09T06:23:29;6.28;;;1.70;;
66129;SDS011;52930;51.464;11.764;2022-09-09T06:26:15;5.15;;;1.60;;
66129;SDS011;52930;51.464;11.764;2022-09-09T06:28:43;4.27;;;1.23;;
66129;SDS011;52930;51.464;11.764;2022-09-09T06:31:09;4.38;;;1.30;;
66129;SDS011;52930;51.464;11.764;2022-09-09T06:33:37;5.18;;;1.13;;
66129;SDS011;52930;51.464;11.764;2022-09-09T06:36:07;4.35;;;1.05;;
66129;SDS011;52930;51.464;11.764;2022-09-09T06:38:35;5.82;;;1.40;;
66129;SDS011;52930;51.464;11.764;2022-09-09T06:41:01;5.77;;;1.40;;
66129;SDS011;52930;51.464;11.764;2022-09-09T06:43:27;7.10;;;1.57;;
66129;SDS011;52930;51.464;11.764;2022-09-09T06:45:56;6.65;;;1.50;;
66129;SDS011;52930;51.464;11.764;2022-09-09T06:48:22;6.60;;;1.30;;
66129;SDS011;52930;51.464;11.764;2022-09-09T06:50:47;6.87;;;1.10;;
66129;SDS011;52930;51.464;11.764;2022-09-09T06:53:16;4.70;;;1.30;;
66129;SDS011;52930;51.464;11.764;2022-09-09T06:55:44;7.10;;;1.53;;
66129;SDS011;52930;51.464;11.764;2022-09-09T06:58:10;5.10;;;1.60;;
66129;SDS011;52930;51.464;11.764;2022-09-09T07:00:35;4.70;;;1.10;;
66129;SDS011;52930;51.464;11.764;2022-09-09T07:03:03;5.03;;;1.33;;
66129;SDS011;52930;51.464;11.764;2022-09-09T07:05:29;6.80;;;1.75;;
66129;SDS011;52930;51.464;11.764;2022-09-09T07:07:54;5.27;;;1.47;;
66129;SDS011;52930;51.464;11.764;2022-09-09T07:10:19;4.37;;;1.10;;
66129;SDS011;52930;51.464;11.764;2022-09-09T07:12:45;4.70;;;1.20;;
66129;SDS011;52930;51.464;11.764;2022-09-09T07:15:16;6.00;;;1.45;;
66129;SDS011;52930;51.464;11.764;2022-09-09T07:17:43;6.60;;;1.55;;
66129;SDS011;52930;51.464;11.764;2022-09-09T07:20:09;8.17;;;1.23;;
66129;SDS011;52930;51.464;11.764;2022-09-09T07:22:34;5.17;;;1.20;;
66129;SDS011;52930;51.464;11.764;2022-09-09T07:25:00;7.83;;;1.43;;
66129;SDS011;52930;51.464;11.764;2022-09-09T07:27:27;3.45;;;0.88;;
66129;SDS011;52930;51.464;11.764;2022-09-09T07:29:52;5.87;;;1.17;;
66129;SDS011;52930;51.464;11.764;2022-09-09T07:32:19;4.05;;;0.82;;
66129;SDS011;52930;51.464;11.764;2022-09-09T07:34:45;4.05;;;0.98;;
66129;SDS011;52930;51.464;11.764;2022-09-09T07:37:11;3.90;;;0.80;;
66129;SDS011;52930;51.464;11.764;2022-09-09T07:39:38;5.07;;;0.70;;
66129;SDS011;52930;51.464;11.764;2022-09-09T07:42:04;4.10;;;0.80;;
66129;SDS011;52930;51.464;11.764;2022-09-09T07:44:30;5.57;;;0.80;;
66129;SDS011;52930;51.464;11.764;2022-09-09T07:46:57;5.05;;;0.90;;
66129;SDS011;52930;51.464;11.764;2022-09-09T07:49:22;7.73;;;1.23;;
66129;SDS011;52930;51.464;11.764;2022-09-09T07:51:48;5.90;;;1.10;;
66129;SDS011;52930;51.464;11.764;2022-09-09T07:54:15;4.85;;;1.10;;
66129;SDS011;52930;51.464;11.764;2022-09-09T07:56:42;5.15;;;1.02;;
66129;SDS011;52930;51.464;11.764;2022-09-09T07:59:08;3.37;;;0.80;;
66129;SDS011;52930;51.464;11.764;2022-09-09T08:01:36;4.93;;;1.20;;
66129;SDS011;52930;51.464;11.764;2022-09-09T08:04:12;5.60;;;1.15;;
66129;SDS011;52930;51.464;11.764;2022-09-09T08:06:40;4.93;;;0.80;;
66129;SDS011;52930;51.464;11.764;2022-09-09T08:09:08;4.70;;;0.90;;
66129;SDS011;52930;51.464;11.764;2022-09-09T08:11:34;5.05;;;0.93;;
66129;SDS011;52930;51.464;11.764;2022-09-09T08:14:00;5.80;;;1.30;;
66129;SDS011;52930;51.464;11.764;2022-09-09T08:16:27;5.77;;;1.07;;
66129;SDS011;52930;51.464;11.764;2022-09-09T08:18:55;5.13;;;0.90;;
66129;SDS011;52930;51.464;11.764;2022-09-09T08:21:22;4.20;;;0.70;;
66129;SDS011;52930;51.464;11.764;2022-09-09T08:23:53;5.22;;;1.08;;
66129;SDS011;52930;51.464;11.764;2022-09-09T08:26:20;4.75;;;0.75;;
66129;SDS011;52930;51.464;11.764;2022-09-09T08:28:47;5.25;;;1.08;;
66129;SDS011;52930;51.464;11.764;2022-09-09T08:31:17;5.57;;;0.90;;
66129;SDS011;52930;51.464;11.764;2022-09-09T08:33:44;4.93;;;1.00;;
66129;SDS011;52930;51.464;11.764;2022-09-09T08:36:14;4.57;;;1.02;;
66129;SDS011;52930;51.464;11.764;2022-09-09T08:38:41;3.20;;;0.73;;
66129;SDS011;52930;51.464;11.764;2022-09-09T08:44:17;6.07;;;0.93;;
66129;SDS011;52930;51.464;11.764;2022-09-09T08:47:19;4.50;;;0.70;;
66129;SDS011;52930;51.464;11.764;2022-09-09T08:52:59;4.60;;;0.80;;
66129;SDS011;52930;51.464;11.764;2022-09-09T08:55:45;10.45;;;1.10;;
66129;SDS011;52930;51.464;11.764;2022-09-09T08:58:27;6.07;;;0.97;;
66129;SDS011;52930;51.464;11.764;2022-09-09T09:11:43;5.63;;;1.00;;
66129;SDS011;52930;51.464;11.764;2022-09-09T09:14:16;4.10;;;0.88;;
66129;SDS011;52930;51.464;11.764;2022-09-09T09:19:23;6.30;;;1.00;;
66129;SDS011;52930;51.464;11.764;2022-09-09T09:21:57;4.35;;;1.08;;
66129;SDS011;52930;51.464;11.764;2022-09-09T09:24:42;6.93;;;1.00;;
66129;SDS011;52930;51.464;11.764;2022-09-09T09:27:12;5.22;;;0.85;;
66129;SDS011;52930;51.464;11.764;2022-09-09T09:29:41;5.00;;;0.80;;
66129;SDS011;52930;51.464;11.764;2022-09-09T09:32:09;6.53;;;1.20;;
66129;SDS011;52930;51.464;11.764;2022-09-09T09:34:37;5.43;;;0.90;;
66129;SDS011;52930;51.464;11.764;2022-09-09T09:37:11;6.37;;;1.07;;
66129;SDS011;52930;51.464;11.764;2022-09-09T09:39:42;4.55;;;1.00;;
66129;SDS011;52930;51.464;11.764;2022-09-09T09:42:17;5.83;;;0.90;;
66129;SDS011;52930;51.464;11.764;2022-09-09T09:44:43;5.78;;;0.82;;
66129;SDS011;52930;51.464;11.764;2022-09-09T09:47:11;4.33;;;0.80;;
66129;SDS011;52930;51.464;11.764;2022-09-09T09:49:56;5.28;;;1.02;;
66129;SDS011;52930;51.464;11.764;2022-09-09T09:52:28;5.70;;;1.25;;
66129;SDS011;52930;51.464;11.764;2022-09-09T09:54:54;4.15;;;0.75;;
66129;SDS011;52930;51.464;11.764;2022-09-09T09:57:26;4.60;;;0.90;;
66129;SDS011;52930;51.464;11.764;2022-09-09T10:00:01;4.40;;;0.80;;
66129;SDS011;52930;51.464;11.764;2022-09-09T10:02:39;6.15;;;1.10;;
66129;SDS011;52930;51.464;11.764;2022-09-09T10:05:15;5.20;;;1.15;;
66129;SDS011;52930;51.464;11.764;2022-09-09T10:07:42;5.95;;;0.80;;
66129;SDS011;52930;51.464;11.764;2022-09-09T10:10:15;3.35;;;1.00;;
66129;SDS011;52930;51.464;11.764;2022-09-09T10:20:59;4.95;;;0.82;;
66129;SDS011;52930;51.464;11.764;2022-09-09T10:23:55;3.97;;;0.98;;
66129;SDS011;52930;51.464;11.764;2022-09-09T10:35:27;5.72;;;0.93;;
66129;SDS011;52930;51.464;11.764;2022-09-09T10:46:27;5.95;;;0.80;;
66129;SDS011;52930;51.464;11.764;2022-09-09T10:51:55;5.60;;;0.98;;
66129;SDS011;52930;51.464;11.764;2022-09-09T10:59:54;4.68;;;0.90;;
66129;SDS011;52930;51.464;11.764;2022-09-09T11:02:29;6.93;;;1.00;;
66129;SDS011;52930;51.464;11.764;2022-09-09T11:04:57;4.70;;;0.88;;
66129;SDS011;52930;51.464;11.764;2022-09-09T11:12:54;5.57;;;0.80;;
66129;SDS011;52930;51.464;11.764;2022-09-09T11:15:31;4.07;;;1.00;;
66129;SDS011;52930;51.464;11.764;2022-09-09T11:18:02;6.45;;;0.90;;
66129;SDS011;52930;51.464;11.764;2022-09-09T11:20:29;3.93;;;0.73;;
66129;SDS011;52930;51.464;11.764;2022-09-09T11:25:39;4.03;;;0.73;;
66129;SDS011;52930;51.464;11.764;2022-09-09T11:36:40;4.55;;;0.70;;
66129;SDS011;52930;51.464;11.764;2022-09-09T11:39:27;4.37;;;0.53;;
66129;SDS011;52930;51.464;11.764;2022-09-09T11:44:36;5.05;;;0.82;;
66129;SDS011;52930;51.464;11.764;2022-09-09T11:47:02;5.80;;;0.90;;
66129;SDS011;52930;51.464;11.764;2022-09-09T11:49:28;4.47;;;0.80;;
66129;SDS011;52930;51.464;11.764;2022-09-09T11:52:19;3.43;;;0.67;;
66129;SDS011;52930;51.464;11.764;2022-09-09T11:54:47;5.95;;;1.00;;
66129;SDS011;52930;51.464;11.764;2022-09-09T11:57:23;4.00;;;0.80;;
66129;SDS011;52930;51.464;11.764;2022-09-09T11:59:51;5.45;;;0.73;;
66129;SDS011;52930;51.464;11.764;2022-09-09T12:02:23;6.75;;;1.25;;
66129;SDS011;52930;51.464;11.764;2022-09-09T12:04:55;5.13;;;1.00;;
66129;SDS011;52930;51.464;11.764;2022-09-09T12:12:32;4.25;;;0.63;;
66129;SDS011;52930;51.464;11.764;2022-09-09T12:15:00;5.90;;;1.00;;
66129;SDS011;52930;51.464;11.764;2022-09-09T12:17:52;4.23;;;0.80;;
66129;SDS011;52930;51.464;11.764;2022-09-09T12:20:40;4.95;;;0.93;;
66129;SDS011;52930;51.464;11.764;2022-09-09T12:31:14;5.30;;;1.00;;
66129;SDS011;52930;51.464;11.764;2022-09-09T12:33:51;3.65;;;0.80;;
66129;SDS011;52930;51.464;11.764;2022-09-09T12:36:30;4.38;;;0.73;;
66129;SDS011;52930;51.464;11.764;2022-09-09T12:38:59;3.20;;;0.70;;
66129;SDS011;52930;51.464;11.764;2022-09-09T12:41:35;4.82;;;1.00;;
66129;SDS011;52930;51.464;11.764;2022-09-09T12:44:08;4.80;;;0.90;;
66129;SDS011;52930;51.464;11.764;2022-09-09T12:46:39;3.83;;;0.90;;
66129;SDS011;52930;51.464;11.764;2022-09-09T12:52:23;5.13;;;0.90;;
66129;SDS011;52930;51.464;11.764;2022-09-09T12:54:59;4.13;;;0.77;;
66129;SDS011;52930;51.464;11.764;2022-09-09T12:57:26;4.47;;;0.60;;
66129;SDS011;52930;51.464;11.764;2022-09-09T13:00:05;5.82;;;0.57;;
66129;SDS011;52930;51.464;11.764;2022-09-09T13:02:34;7.82;;;1.02;;
66129;SDS011;52930;51.464;11.764;2022-09-09T13:05:12;4.17;;;0.70;;
66129;SDS011;52930;51.464;11.764;2022-09-09T13:07:40;4.60;;;0.80;;
66129;SDS011;52930;51.464;11.764;2022-09-09T13:10:05;3.60;;;0.63;;
66129;SDS011;52930;51.464;11.764;2022-09-09T13:12:31;5.40;;;0.68;;
66129;SDS011;52930;51.464;11.764;2022-09-09T13:14:57;6.13;;;0.83;;
66129;SDS011;52930;51.464;11.764;2022-09-09T13:17:26;3.40;;;0.67;;
66129;SDS011;52930;51.464;11.764;2022-09-09T13:19:54;6.07;;;0.80;;
66129;SDS011;52930;51.464;11.764;2022-09-09T13:24:59;3.78;;;0.95;;
66129;SDS011;52930;51.464;11.764;2022-09-09T13:27:29;4.15;;;0.63;;
66129;SDS011;52930;51.464;11.764;2022-09-09T13:29:56;4.60;;;0.70;;
66129;SDS011;52930;51.464;11.764;2022-09-09T13:32:22;4.22;;;0.60;;
66129;SDS011;52930;51.464;11.764;2022-09-09T13:34:53;2.33;;;0.50;;
66129;SDS011;52930;51.464;11.764;2022-09-09T13:37:29;4.53;;;0.55;;
66129;SDS011;52930;51.464;11.764;2022-09-09T13:40:02;3.05;;;0.70;;
66129;SDS011;52930;51.464;11.764;2022-09-09T13:42:31;5.25;;;0.60;;
66129;SDS011;52930;51.464;11.764;2022-09-09T13:45:00;4.35;;;0.98;;
66129;SDS011;52930;51.464;11.764;2022-09-09T13:47:30;7.43;;;1.03;;
66129;SDS011;52930;51.464;11.764;2022-09-09T13:49:58;3.60;;;0.63;;
66129;SDS011;52930;51.464;11.764;2022-09-09T13:52:23;5.37;;;0.80;;
66129;SDS011;52930;51.464;11.764;2022-09-09T13:54:49;3.97;;;0.70;;
66129;SDS011;52930;51.464;11.764;2022-09-09T13:57:19;3.90;;;0.90;;
66129;SDS011;52930;51.464;11.764;2022-09-09T13:59:48;6.07;;;1.08;;
66129;SDS011;52930;51.464;11.764;2022-09-09T14:02:14;3.17;;;0.60;;
66129;SDS011;52930;51.464;11.764;2022-09-09T14:04:41;4.60;;;0.60;;
66129;SDS011;52930;51.464;11.764;2022-09-09T14:07:09;4.40;;;0.80;;
66129;SDS011;52930;51.464;11.764;2022-09-09T14:09:36;4.15;;;0.60;;
66129;SDS011;52930;51.464;11.764;2022-09-09T14:12:01;3.53;;;0.50;;
66129;SDS011;52930;51.464;11.764;2022-09-09T14:14:27;5.07;;;0.70;;
66129;SDS011;52930;51.464;11.764;2022-09-09T14:16:53;3.37;;;0.77;;
66129;SDS011;52930;51.464;11.764;2022-09-09T14:19:18;3.43;;;0.47;;
66129;SDS011;52930;51.464;11.764;2022-09-09T14:21:43;4.90;;;0.50;;
66129;SDS011;52930;51.464;11.764;2022-09-09T14:24:09;3.30;;;0.50;;
66129;SDS011;52930;51.464;11.764;2022-09-09T14:26:34;4.60;;;0.60;;
66129;SDS011;52930;51.464;11.764;2022-09-09T14:28:59;3.77;;;0.80;;
66129;SDS011;52930;51.464;11.764;2022-09-09T14:31:26;4.00;;;0.60;;
66129;SDS011;52930;51.464;11.764;2022-09-09T14:33:51;2.20;;;0.40;;
66129;SDS011;52930;51.464;11.764;2022-09-09T14:36:17;2.30;;;0.40;;
66129;SDS011;52930;51.464;11.764;2022-09-09T14:38:42;2.80;;;0.50;;
66129;SDS011;52930;51.464;11.764;2022-09-09T14:41:26;3.20;;;0.50;;
66129;SDS011;52930;51.464;11.764;2022-09-09T14:43:51;4.40;;;0.50;;
66129;SDS011;52930;51.464;11.764;2022-09-09T14:46:17;2.83;;;0.40;;
66129;SDS011;52930;51.464;11.764;2022-09-09T14:48:44;2.97;;;0.60;;
66129;SDS011;52930;51.464;11.764;2022-09-09T14:51:28;2.23;;;0.60;;
66129;SDS011;52930;51.464;11.764;2022-09-09T14:53:54;2.55;;;0.43;;
66129;SDS011;52930;51.464;11.764;2022-09-09T14:56:22;4.28;;;0.70;;
66129;SDS011;52930;51.464;11.764;2022-09-09T14:58:49;3.08;;;0.50;;
66129;SDS011;52930;51.464;11.764;2022-09-09T15:01:17;2.00;;;0.30;;
66129;SDS011;52930;51.464;11.764;2022-09-09T15:03:48;2.90;;;0.57;;
66129;SDS011;52930;51.464;11.764;2022-09-09T15:06:21;3.38;;;0.63;;
66129;SDS011;52930;51.464;11.764;2022-09-09T15:08:49;5.35;;;0.60;;
66129;SDS011;52930;51.464;11.764;2022-09-09T15:11:15;3.85;;;0.40;;
66129;SDS011;52930;51.464;11.764;2022-09-09T15:13:41;6.07;;;0.60;;
66129;SDS011;52930;51.464;11.764;2022-09-09T15:16:08;4.28;;;0.70;;
66129;SDS011;52930;51.464;11.764;2022-09-09T15:18:44;4.80;;;0.40;;
66129;SDS011;52930;51.464;11.764;2022-09-09T15:21:14;2.60;;;0.40;;
66129;SDS011;52930;51.464;11.764;2022-09-09T15:23:42;2.13;;;0.40;;
66129;SDS011;52930;51.464;11.764;2022-09-09T15:26:07;2.53;;;0.60;;
66129;SDS011;52930;51.464;11.764;2022-09-09T15:28:33;3.25;;;0.60;;
66129;SDS011;52930;51.464;11.764;2022-09-09T15:31:10;3.90;;;0.90;;
66129;SDS011;52930;51.464;11.764;2022-09-09T15:33:39;3.92;;;1.05;;
66129;SDS011;52930;51.464;11.764;2022-09-09T15:36:22;3.78;;;1.70;;
66129;SDS011;52930;51.464;11.764;2022-09-09T15:38:49;3.08;;;0.40;;
66129;SDS011;52930;51.464;11.764;2022-09-09T15:41:15;2.35;;;0.60;;
66129;SDS011;52930;51.464;11.764;2022-09-09T15:43:45;3.23;;;0.43;;
66129;SDS011;52930;51.464;11.764;2022-09-09T15:46:32;2.10;;;0.30;;
66129;SDS011;52930;51.464;11.764;2022-09-09T15:49:11;2.78;;;0.40;;
66129;SDS011;52930;51.464;11.764;2022-09-09T15:51:38;5.07;;;1.70;;
66129;SDS011;52930;51.464;11.764;2022-09-09T15:54:04;3.90;;;0.60;;
66129;SDS011;52930;51.464;11.764;2022-09-09T15:56:31;2.40;;;0.60;;
66129;SDS011;52930;51.464;11.764;2022-09-09T15:58:57;4.38;;;0.40;;
66129;SDS011;52930;51.464;11.764;2022-09-09T16:01:24;3.55;;;0.50;;
66129;SDS011;52930;51.464;11.764;2022-09-09T16:03:49;3.30;;;0.50;;
66129;SDS011;52930;51.464;11.764;2022-09-09T16:06:19;2.88;;;0.43;;
66129;SDS011;52930;51.464;11.764;2022-09-09T16:08:48;3.20;;;0.50;;
66129;SDS011;52930;51.464;11.764;2022-09-09T16:11:19;3.30;;;0.70;;
66129;SDS011;52930;51.464;11.764;2022-09-09T16:13:46;4.05;;;0.80;;
66129;SDS011;52930;51.464;11.764;2022-09-09T16:16:13;2.80;;;0.73;;
66129;SDS011;52930;51.464;11.764;2022-09-09T16:18:40;5.43;;;1.33;;
66129;SDS011;52930;51.464;11.764;2022-09-09T16:21:12;3.50;;;0.83;;
66129;SDS011;52930;51.464;11.764;2022-09-09T16:23:52;5.28;;;1.00;;
66129;SDS011;52930;51.464;11.764;2022-09-09T16:26:21;5.88;;;0.95;;
66129;SDS011;52930;51.464;11.764;2022-09-09T16:28:47;3.35;;;0.77;;
66129;SDS011;52930;51.464;11.764;2022-09-09T16:31:14;6.53;;;1.20;;
66129;SDS011;52930;51.464;11.764;2022-09-09T16:33:43;2.80;;;0.70;;
66129;SDS011;52930;51.464;11.764;2022-09-09T16:36:10;3.42;;;0.50;;
66129;SDS011;52930;51.464;11.764;2022-09-09T16:38:37;3.30;;;0.50;;
66129;SDS011;52930;51.464;11.764;2022-09-09T16:41:03;4.18;;;0.35;;
66129;SDS011;52930;51.464;11.764;2022-09-09T16:43:30;5.03;;;0.57;;
66129;SDS011;52930;51.464;11.764;2022-09-09T16:45:56;2.07;;;0.50;;
66129;SDS011;52930;51.464;11.764;2022-09-09T16:48:22;2.17;;;0.50;;
66129;SDS011;52930;51.464;11.764;2022-09-09T16:50:47;3.83;;;0.50;;
66129;SDS011;52930;51.464;11.764;2022-09-09T16:53:13;4.38;;;0.70;;